Knox County (4I3)

 

Airport Diagram
No Airport Diagram Available
Current Weather/Forecast (VFR Conditions)
METAR K4I3 211535Z AUTO 23009G16KT 10SM CLR 03/M03 A2977 RMK AO2
TAF

Airport Information

All Charts
General
Chart Name View
TAKEOFF MINIMUMS
ALTERNATE MINIMUMS
TAKEOFF MINIMUMS
ALTERNATE MINIMUMS

Approaches
Chart Name Download
RNAV (GPS) RWY 10
RNAV (GPS) RWY 28
VOR-A
RNAV (GPS) RWY 10
RNAV (GPS) RWY 28
VOR-A


Airport Statistics
Departures Arrivals Local
All Collected Stats since June 2016: 2 4 1
2021 Stats: 1 1 0
January Stats: 1 1 0

Inbound Traffic (Arrivals) - 0

No inbound traffic.


Outbound Traffic (Departures) - 0

No outbound traffic.


Local Traffic (Pattern) - 0

No local traffic.